Time;durP1;ratioP1;P1;durP2;ratioP2;P2;SDS_P1;SDS_P2;PMS_P1;PMS_P2;Temp;Humidity;BMP_temperature;BMP_pressure;BME280_temperature;BME280_humidity;BME280_pressure;Samples;Min_cycle;Max_cycle;Signal;HPM_P1;HPM_P2
2023/04/04 00:01:15;;;;;;;4.35;2.28;;;;;;;-2.14;100.00;102830.78;5033796;28;20116;-86
2023/04/04 00:03:41;;;;;;;7.35;2.55;;;;;;;-2.15;100.00;102837.84;5013989;28;20029;-87
2023/04/04 00:06:06;;;;;;;7.03;2.70;;;;;;;-2.14;100.00;102839.50;5014328;28;20064;-87
2023/04/04 00:08:32;;;;;;;8.73;2.87;;;;;;;-2.20;100.00;102828.66;5032449;28;20034;-87
2023/04/04 00:11:00;;;;;;;7.18;2.10;;;;;;;-2.20;100.00;102844.41;5033213;28;20102;-86
2023/04/04 00:13:28;;;;;;;5.43;2.30;;;;;;;-2.28;100.00;102843.22;5035319;28;20018;-87
2023/04/04 00:15:54;;;;;;;8.73;2.40;;;;;;;-2.33;100.00;102848.00;5043690;28;20029;-86
2023/04/04 00:18:20;;;;;;;5.90;2.47;;;;;;;-2.40;100.00;102838.97;5046509;28;20029;-87
2023/04/04 00:20:45;;;;;;;5.07;2.50;;;;;;;-2.40;100.00;102846.84;5050433;28;20017;-87
2023/04/04 00:23:11;;;;;;;7.73;2.40;;;;;;;-2.39;100.00;102850.28;5048080;28;20030;-87
2023/04/04 00:25:36;;;;;;;6.23;2.40;;;;;;;-2.43;100.00;102849.69;5047767;28;20084;-85
2023/04/04 00:28:02;;;;;;;8.18;2.78;;;;;;;-2.41;100.00;102850.41;5026494;28;20113;-87
2023/04/04 00:30:28;;;;;;;6.60;2.47;;;;;;;-2.39;100.00;102839.78;5012707;28;20037;-86
2023/04/04 00:32:55;;;;;;;10.15;2.50;;;;;;;-2.37;100.00;102846.56;5013175;28;20069;-86
2023/04/04 00:35:21;;;;;;;5.00;1.70;;;;;;;-2.41;100.00;102844.31;5012246;28;20087;-87
2023/04/04 00:37:46;;;;;;;7.20;2.30;;;;;;;-2.47;100.00;102837.78;5012684;28;20030;-85
2023/04/04 00:40:11;;;;;;;6.83;2.47;;;;;;;-2.40;100.00;102848.63;5030594;28;20040;-86
2023/04/04 00:42:37;;;;;;;7.27;2.20;;;;;;;-2.39;100.00;102838.00;5032744;28;20096;-86
2023/04/04 00:45:04;;;;;;;4.63;1.73;;;;;;;-2.42;100.00;102835.63;5032008;28;20041;-86
2023/04/04 00:47:30;;;;;;;5.87;2.60;;;;;;;-2.40;100.00;102844.22;5031886;28;20655;-87
2023/04/04 00:49:55;;;;;;;4.72;2.30;;;;;;;-2.47;100.00;102849.13;5032204;28;20030;-86
2023/04/04 00:52:22;;;;;;;4.88;2.20;;;;;;;-2.53;100.00;102848.75;5033388;28;20067;-86
2023/04/04 00:54:47;;;;;;;4.50;2.37;;;;;;;-2.54;100.00;102858.44;5026189;28;20052;-86
2023/04/04 00:57:13;;;;;;;7.90;2.33;;;;;;;-2.54;100.00;102845.28;5012767;28;20025;-86
2023/04/04 00:59:38;;;;;;;5.53;2.37;;;;;;;-2.55;100.00;102850.66;5012157;28;20118;-86
2023/04/04 01:02:04;;;;;;;5.97;2.23;;;;;;;-2.59;100.00;102857.94;5042850;28;20069;-85
2023/04/04 01:04:31;;;;;;;5.82;2.20;;;;;;;-2.57;100.00;102857.84;5012427;28;20109;-86
2023/04/04 01:06:56;;;;;;;4.07;2.20;;;;;;;-2.66;100.00;102851.53;5012718;28;20489;-86
2023/04/04 01:09:22;;;;;;;4.47;1.80;;;;;;;-2.75;100.00;102835.53;5014604;28;20032;-86
2023/04/04 01:11:48;;;;;;;4.83;2.10;;;;;;;-2.77;100.00;102855.78;5012333;28;20029;-86
2023/04/04 01:14:13;;;;;;;8.25;2.40;;;;;;;-2.86;100.00;102848.66;5012442;28;20068;-85
2023/04/04 01:16:40;;;;;;;2.93;2.10;;;;;;;-2.94;100.00;102844.00;5011922;28;20101;-86
2023/04/04 01:19:08;;;;;;;5.70;2.00;;;;;;;-2.89;100.00;102838.38;5011807;28;20026;-86
2023/04/04 01:21:35;;;;;;;5.70;2.28;;;;;;;-2.78;100.00;102835.75;5011693;28;20050;-86
2023/04/04 01:24:03;;;;;;;4.72;2.28;;;;;;;-2.72;100.00;102829.19;5012447;28;20025;-86
2023/04/04 01:26:29;;;;;;;5.25;2.08;;;;;;;-2.73;100.00;102832.75;5024401;28;20037;-86
2023/04/04 01:28:56;;;;;;;5.10;2.42;;;;;;;-2.80;100.00;102823.72;5024611;28;20044;-86
2023/04/04 01:31:28;;;;;;;5.13;1.90;;;;;;;-2.86;100.00;102818.94;5031920;28;20507;-86
2023/04/04 01:34:02;;;;;;;6.13;2.40;;;;;;;-2.86;100.00;102816.31;5031844;28;20021;-86
2023/04/04 01:36:39;;;;;;;7.72;2.22;;;;;;;-2.93;100.00;102821.22;5017728;28;20849;-86
2023/04/04 01:39:20;;;;;;;6.07;2.08;;;;;;;-2.99;100.00;102819.91;5011404;28;20021;-86
2023/04/04 01:41:47;;;;;;;6.65;2.30;;;;;;;-3.04;100.00;102819.41;5011497;28;20030;-86
2023/04/04 01:44:14;;;;;;;5.60;2.17;;;;;;;-3.08;100.00;102818.81;5013454;28;20030;-86
2023/04/04 01:46:40;;;;;;;4.95;2.17;;;;;;;-3.04;100.00;102808.91;5013076;28;20026;-86
2023/04/04 01:49:05;;;;;;;4.30;1.90;;;;;;;-3.01;100.00;102818.34;5011970;28;20059;-86
2023/04/04 01:51:31;;;;;;;4.97;2.20;;;;;;;-3.08;100.00;102813.56;5012696;28;20026;-86
2023/04/04 01:53:56;;;;;;;5.35;2.08;;;;;;;-3.16;100.00;102802.81;5012694;28;20477;-86
2023/04/04 01:56:22;;;;;;;6.77;1.93;;;;;;;-3.27;100.00;102814.13;5011396;28;20033;-87
2023/04/04 01:58:47;;;;;;;6.53;2.30;;;;;;;-3.26;100.00;102815.81;5020227;28;20091;-87
2023/04/04 02:01:13;;;;;;;5.93;2.30;;;;;;;-3.26;100.00;102818.44;5031853;28;20033;-86
2023/04/04 02:03:38;;;;;;;6.53;2.03;;;;;;;-3.32;100.00;102811.06;5033052;28;20029;-87
2023/04/04 02:06:03;;;;;;;4.80;2.07;;;;;;;-3.30;100.00;102817.00;5033882;28;20061;-86
2023/04/04 02:08:29;;;;;;;6.27;2.07;;;;;;;-3.30;100.00;102813.53;5030058;28;20882;-86
2023/04/04 02:10:57;;;;;;;3.47;1.90;;;;;;;-3.35;100.00;102811.28;5031634;28;20032;-86
2023/04/04 02:13:22;;;;;;;8.07;2.08;;;;;;;-3.41;100.00;102812.59;5031335;28;20025;-86
2023/04/04 02:15:48;;;;;;;5.33;2.20;;;;;;;-3.50;100.00;102811.50;5031198;28;20029;-86
2023/04/04 02:18:13;;;;;;;6.65;2.22;;;;;;;-3.53;100.00;102821.34;5031204;28;20081;-87
2023/04/04 02:20:39;;;;;;;4.43;2.07;;;;;;;-3.56;100.00;102822.41;5031612;28;20536;-87
2023/04/04 02:23:04;;;;;;;3.80;2.17;;;;;;;-3.56;100.00;102819.81;5032825;28;20021;-87
2023/04/04 02:25:29;;;;;;;7.93;2.10;;;;;;;-3.59;100.00;102824.44;5025734;28;20021;-87
2023/04/04 02:27:55;;;;;;;5.93;1.87;;;;;;;-3.60;100.00;102820.16;5030989;28;20071;-87
2023/04/04 02:30:20;;;;;;;4.43;2.40;;;;;;;-3.62;100.00;102822.06;5022345;28;20021;-86
2023/04/04 02:32:46;;;;;;;4.93;2.20;;;;;;;-3.68;100.00;102825.97;5010948;28;20107;-88
2023/04/04 02:35:11;;;;;;;7.43;2.40;;;;;;;-3.74;100.00;102831.66;5011108;28;20026;-88
2023/04/04 02:37:36;;;;;;;5.73;2.30;;;;;;;-3.77;100.00;102834.50;5011214;28;20295;-87
2023/04/04 02:40:02;;;;;;;4.20;2.20;;;;;;;-3.81;100.00;102832.09;5010996;28;20037;-87
2023/04/04 02:42:27;;;;;;;2.85;1.75;;;;;;;-3.82;100.00;102838.28;5021081;28;20111;-88
2023/04/04 02:44:53;;;;;;;3.60;1.73;;;;;;;-3.86;100.00;102828.16;5030471;28;20025;-88
2023/04/04 02:47:19;;;;;;;6.13;2.33;;;;;;;-3.83;100.00;102835.78;5030168;28;20033;-88
2023/04/04 02:49:46;;;;;;;6.30;2.28;;;;;;;-3.84;100.00;102831.50;5030096;28;20473;-87
2023/04/04 02:52:11;;;;;;;5.67;2.20;;;;;;;-3.93;100.00;102825.16;5026434;28;20033;-88
2023/04/04 02:54:37;;;;;;;2.08;1.60;;;;;;;-3.94;100.00;102831.34;5042880;28;20022;-88
2023/04/04 02:57:03;;;;;;;4.20;2.07;;;;;;;-3.93;100.00;102817.28;5011019;28;20105;-88
2023/04/04 02:59:28;;;;;;;6.03;2.10;;;;;;;-3.86;100.00;102821.13;5023299;28;20051;-87
2023/04/04 03:01:54;;;;;;;5.73;2.27;;;;;;;-3.85;100.00;102822.81;5030618;28;20473;-87
2023/04/04 03:04:19;;;;;;;3.47;2.17;;;;;;;-3.89;100.00;102815.28;5030837;28;20026;-88
2023/04/04 03:06:47;;;;;;;4.32;2.10;;;;;;;-3.88;100.00;102815.16;5030629;28;20136;-88
2023/04/04 03:09:13;;;;;;;5.05;2.50;;;;;;;-3.87;100.00;102816.00;5031464;28;20022;-88
2023/04/04 03:11:38;;;;;;;7.10;2.53;;;;;;;-3.88;100.00;102815.16;5030928;28;20026;-87
2023/04/04 03:14:03;;;;;;;5.93;2.38;;;;;;;-3.89;100.00;102813.50;5042208;28;20025;-86
2023/04/04 03:16:29;;;;;;;8.67;2.30;;;;;;;-3.95;100.00;102819.19;5027991;28;20462;-88
2023/04/04 03:18:55;;;;;;;5.60;2.53;;;;;;;-3.97;100.00;102821.06;5030676;28;20028;-85
2023/04/04 03:21:20;;;;;;;6.68;2.35;;;;;;;-3.97;100.00;102821.06;5025173;28;20038;-87
2023/04/04 03:23:45;;;;;;;7.87;2.27;;;;;;;-4.11;100.00;102817.69;5010867;28;20405;-87
2023/04/04 03:26:11;;;;;;;3.73;2.07;;;;;;;-4.15;100.00;102818.84;5010622;28;20109;-88
2023/04/04 03:28:36;;;;;;;5.90;2.28;;;;;;;-4.17;100.00;102819.91;5010080;28;20101;-88
2023/04/04 03:31:05;;;;;;;6.23;2.23;;;;;;;-4.20;100.00;102820.94;5009042;28;20061;-87
2023/04/04 03:33:41;;;;;;;3.47;2.20;;;;;;;-4.19;100.00;102817.38;4991034;28;20510;-88
2023/04/04 03:36:11;;;;;;;5.47;2.77;;;;;;;-4.16;100.00;102816.34;5013804;28;20291;-88
2023/04/04 03:38:37;;;;;;;5.32;2.33;;;;;;;-4.20;100.00;102799.19;5029755;28;20432;-88
2023/04/04 03:41:03;;;;;;;4.70;2.00;;;;;;;-4.16;100.00;102806.69;5029639;28;20021;-88
2023/04/04 03:43:29;;;;;;;6.25;2.63;;;;;;;-4.12;100.00;102799.47;5030152;28;20057;-87
2023/04/04 03:45:59;;;;;;;5.83;2.50;;;;;;;-4.07;100.00;102799.13;5030907;28;20068;-88
2023/04/04 03:48:24;;;;;;;6.03;2.57;;;;;;;-4.12;100.00;102792.44;5027619;28;20296;-87
2023/04/04 03:50:50;;;;;;;5.57;2.20;;;;;;;-4.26;100.00;102780.34;5030751;28;20033;-88
2023/04/04 03:53:15;;;;;;;5.63;2.33;;;;;;;-4.24;100.00;102790.72;5030563;28;20034;-90
2023/04/04 03:55:41;;;;;;;4.50;2.47;;;;;;;-4.30;100.00;102783.31;5030242;28;20021;-89
2023/04/04 03:58:06;;;;;;;6.37;2.30;;;;;;;-4.21;100.00;102792.28;5030406;28;20041;-89
2023/04/04 04:00:31;;;;;;;8.83;2.70;;;;;;;-4.16;100.00;102793.59;5029571;28;20284;-89
2023/04/04 04:02:57;;;;;;;5.20;2.73;;;;;;;-4.21;100.00;102792.28;5030455;28;20030;-89
2023/04/04 04:05:23;;;;;;;6.20;2.30;;;;;;;-4.31;100.00;102792.09;5030312;28;20133;-90
2023/04/04 04:07:49;;;;;;;4.32;2.45;;;;;;;-4.32;100.00;102787.81;5030130;28;20040;-89
2023/04/04 04:10:14;;;;;;;6.83;2.53;;;;;;;-4.34;100.00;102792.31;5028537;28;20033;-89
2023/04/04 04:12:40;;;;;;;8.63;3.00;;;;;;;-4.38;100.00;102801.38;5030232;28;20329;-90
2023/04/04 04:15:06;;;;;;;5.43;2.40;;;;;;;-4.42;100.00;102803.34;5028191;28;20572;-89
2023/04/04 04:17:31;;;;;;;6.77;2.57;;;;;;;-4.49;100.00;102794.28;5030434;28;20041;-90
2023/04/04 04:19:56;;;;;;;5.23;2.30;;;;;;;-4.45;100.00;102793.09;5030101;28;20028;-90
2023/04/04 04:22:22;;;;;;;8.53;2.90;;;;;;;-4.46;100.00;102797.50;5031692;28;20392;-90
2023/04/04 04:24:47;;;;;;;3.42;2.22;;;;;;;-4.49;100.00;102792.47;5034254;28;20101;-89
2023/04/04 04:27:12;;;;;;;6.10;2.83;;;;;;;-4.57;100.00;102774.72;5033648;28;20025;-90
2023/04/04 04:29:39;;;;;;;6.67;2.47;;;;;;;-4.56;100.00;102786.00;5032964;28;20121;-89
2023/04/04 04:32:04;;;;;;;7.32;2.97;;;;;;;-4.60;100.00;102781.94;5034134;28;20041;-88
2023/04/04 04:34:30;;;;;;;5.00;2.60;;;;;;;-4.58;100.00;102782.69;5033897;28;20089;-88
2023/04/04 04:36:55;;;;;;;8.10;2.80;;;;;;;-4.54;100.00;102794.56;5034301;28;20029;-89
2023/04/04 04:39:20;;;;;;;7.53;2.90;;;;;;;-4.59;100.00;102787.06;5033568;28;20090;-88
2023/04/04 04:41:46;;;;;;;5.97;2.60;;;;;;;-4.71;100.00;102774.84;5037651;28;20570;-89
2023/04/04 04:44:11;;;;;;;9.73;3.00;;;;;;;-4.90;100.00;102744.75;5023585;28;20397;-90
2023/04/04 04:46:37;;;;;;;7.27;3.13;;;;;;;-4.63;100.00;102784.78;4994046;28;20026;-87
2023/04/04 04:49:02;;;;;;;4.63;2.88;;;;;;;-4.63;100.00;102782.97;4999219;28;20053;-87
2023/04/04 04:51:28;;;;;;;4.83;2.73;;;;;;;-4.59;100.00;102787.06;5001833;28;20026;-88
2023/04/04 04:53:53;;;;;;;8.07;3.17;;;;;;;-4.62;100.00;102783.84;4993757;28;20033;-87
2023/04/04 04:56:18;;;;;;;7.80;2.93;;;;;;;-4.69;100.00;102786.06;4994036;28;20034;-87
2023/04/04 04:58:46;;;;;;;7.13;3.20;;;;;;;-4.74;100.00;102791.59;5009280;28;20396;-87
2023/04/04 05:01:11;;;;;;;5.93;3.03;;;;;;;-4.76;100.00;102803.13;5035485;28;20350;-89
2023/04/04 05:03:36;;;;;;;6.20;3.22;;;;;;;-4.78;100.00;102816.31;5035923;28;20030;-88
2023/04/04 05:06:02;;;;;;;7.60;3.33;;;;;;;-4.81;100.00;102813.06;5034456;28;20025;-87
2023/04/04 05:08:27;;;;;;;6.40;3.03;;;;;;;-4.84;100.00;102815.91;5035334;28;20033;-88
2023/04/04 05:10:53;;;;;;;6.10;3.10;;;;;;;-4.88;100.00;102813.50;5033052;28;20021;-88
2023/04/04 05:13:19;;;;;;;7.15;3.58;;;;;;;-4.90;100.00;102818.00;5033808;28;20026;-88
2023/04/04 05:15:46;;;;;;;8.10;3.23;;;;;;;-4.92;100.00;102819.03;5033679;28;20037;-88
2023/04/04 05:18:12;;;;;;;7.15;3.33;;;;;;;-4.86;100.00;102826.47;5031264;28;20048;-88
2023/04/04 05:20:37;;;;;;;6.87;3.33;;;;;;;-4.87;100.00;102806.47;5013643;28;20025;-88
2023/04/04 05:23:02;;;;;;;10.50;3.33;;;;;;;-4.83;100.00;102813.16;5014229;28;20057;-88
2023/04/04 05:25:27;;;;;;;6.73;3.23;;;;;;;-4.81;100.00;102816.53;5012770;28;20280;-88
2023/04/04 05:27:54;;;;;;;7.07;3.23;;;;;;;-4.87;100.00;102822.16;5013514;28;20405;-89
2023/04/04 05:30:20;;;;;;;6.25;3.20;;;;;;;-4.84;100.00;102826.38;5012891;28;20036;-91
2023/04/04 05:32:45;;;;;;;8.47;3.60;;;;;;;-4.80;100.00;102805.13;5013573;28;20030;-91
2023/04/04 05:35:11;;;;;;;12.53;4.23;;;;;;;-4.55;100.00;102816.47;5012880;28;20128;-87
2023/04/04 05:37:40;;;;;;;5.68;2.80;;;;;;;-4.54;100.00;102812.91;5011954;28;20097;-88
2023/04/04 05:40:06;;;;;;;4.38;3.22;;;;;;;-4.54;100.00;102819.94;5011253;28;20563;-87
2023/04/04 05:42:41;;;;;;;5.18;3.00;;;;;;;-4.57;100.00;102821.81;5016120;28;20044;-88
2023/04/04 05:45:07;;;;;;;7.03;3.10;;;;;;;-4.58;100.00;102819.31;5049889;28;20017;-90
2023/04/04 05:47:32;;;;;;;12.60;3.40;;;;;;;-4.59;100.00;102820.25;5019203;28;20038;-89
2023/04/04 05:49:58;;;;;;;6.57;3.70;;;;;;;-4.56;100.00;102827.88;5012724;28;20033;-87
2023/04/04 05:52:24;;;;;;;7.27;3.83;;;;;;;-4.56;100.00;102820.00;5013308;28;20133;-88
2023/04/04 05:54:52;;;;;;;13.13;4.23;;;;;;;-4.72;100.00;102792.31;5105583;22;20313;-86
2023/04/04 05:57:53;;;;;;;7.78;4.28;;;;;;;-4.64;100.00;102796.19;5016954;28;20073;-85
2023/04/04 06:01:00;;;;;;;11.43;4.20;;;;;;;-4.21;100.00;102842.03;4989723;28;20112;-87
2023/04/04 06:03:40;;;;;;;10.23;4.00;;;;;;;-4.22;100.00;102824.63;4973646;28;20390;-87
2023/04/04 06:09:59;;;;;;;10.43;4.07;;;;;;;-4.07;100.00;102820.91;4914596;29;20064;-84
2023/04/04 06:12:34;;;;;;;6.70;4.53;;;;;;;-3.83;100.00;102825.31;4975039;28;20683;-87
2023/04/04 06:15:45;;;;;;;8.30;4.90;;;;;;;-3.61;100.00;102842.06;4992765;28;20018;-86
2023/04/04 06:18:19;;;;;;;8.60;5.43;;;;;;;-3.64;100.00;102816.91;5047090;22;20140;-86
2023/04/04 06:20:48;;;;;;;7.10;4.75;;;;;;;-3.50;100.00;102818.50;5116296;22;20024;-86
2023/04/04 06:23:20;;;;;;;8.40;5.13;;;;;;;-3.42;100.00;102828.41;5030889;28;20117;-86
2023/04/04 06:26:02;;;;;;;10.35;5.47;;;;;;;-3.37;100.00;102824.47;5029832;28;20108;-86
2023/04/04 06:28:27;;;;;;;9.52;5.63;;;;;;;-3.15;100.00;102835.16;5021296;28;20030;-88
2023/04/04 06:30:52;;;;;;;10.97;5.73;;;;;;;-2.84;100.00;102851.16;5012982;28;20049;-87
2023/04/04 06:33:18;;;;;;;12.80;5.60;;;;;;;-2.70;100.00;102850.91;5016536;28;20021;-87
2023/04/04 06:35:45;;;;;;;10.30;6.20;;;;;;;-2.63;100.00;102838.97;5020055;28;20034;-88
2023/04/04 06:38:11;;;;;;;10.23;5.38;;;;;;;-2.42;100.00;102848.75;5014580;28;20164;-87
2023/04/04 06:40:37;;;;;;;13.02;5.93;;;;;;;-2.23;100.00;102853.34;5012169;28;20025;-88
2023/04/04 06:43:05;;;;;;;8.23;5.57;;;;;;;-2.13;100.00;102856.94;5009796;28;20500;-89
2023/04/04 06:45:32;;;;;;;11.18;5.68;;;;;;;-2.05;100.00;102853.69;5008310;28;20168;-88
2023/04/04 06:47:58;;;;;;;10.07;4.90;;;;;;;-1.89;100.00;102866.41;5013328;28;20049;-86
2023/04/04 06:50:24;;;;;;;7.73;4.53;;;;;;;-1.79;100.00;102855.16;5011681;28;20288;-86
2023/04/04 06:52:49;;;;;;;9.75;5.40;;;;;;;-1.64;100.00;102859.16;5012341;28;20033;-86
2023/04/04 06:55:15;;;;;;;9.20;4.57;;;;;;;-1.46;100.00;102864.66;5012145;28;20066;-86
2023/04/04 06:57:41;;;;;;;7.28;4.80;;;;;;;-1.35;100.00;102871.66;5013793;28;20030;-85
2023/04/04 07:00:07;;;;;;;9.97;4.67;;;;;;;-1.28;100.00;102864.94;5021408;28;20122;-87
2023/04/04 07:02:35;;;;;;;7.50;4.53;;;;;;;-1.15;100.00;102864.75;5013676;28;20034;-86
2023/04/04 07:05:02;;;;;;;9.27;4.68;;;;;;;-0.99;100.00;102873.97;5014046;28;20072;-85
2023/04/04 07:07:28;;;;;;;10.10;4.90;;;;;;;-0.87;100.00;102872.09;5022123;28;20021;-87
2023/04/04 07:09:54;;;;;;;9.33;4.37;;;;;;;-0.77;100.00;102867.69;5010732;28;20428;-87
2023/04/04 07:12:19;;;;;;;8.32;3.92;;;;;;;-0.69;100.00;102878.41;5011136;28;20120;-87
2023/04/04 07:14:45;;;;;;;9.37;4.27;;;;;;;-0.64;100.00;102860.41;5008635;28;20447;-87
2023/04/04 07:17:10;;;;;;;8.03;4.53;;;;;;;-0.47;100.00;102871.31;5010852;28;20053;-87
2023/04/04 07:19:35;;;;;;;9.20;4.60;;;;;;;-0.38;100.00;102867.84;5010351;28;20022;-87
2023/04/04 07:22:01;;;;;;;11.40;4.80;;;;;;;-0.19;100.00;102880.25;5010902;28;20400;-87
2023/04/04 07:24:26;;;;;;;9.60;3.47;;;;;;;-0.06;100.00;102865.97;5010083;28;20481;-86
2023/04/04 07:26:52;;;;;;;9.10;4.80;;;;;;;0.04;100.00;102866.81;5010652;28;20037;-87
2023/04/04 07:29:17;;;;;;;9.93;4.55;;;;;;;0.11;100.00;102870.56;5011315;28;20109;-87
2023/04/04 07:31:42;;;;;;;8.90;4.77;;;;;;;0.24;100.00;102864.19;5015733;28;20473;-87
2023/04/04 07:34:08;;;;;;;9.83;4.70;;;;;;;0.28;100.00;102855.84;5019882;28;20018;-87
2023/04/04 07:36:33;;;;;;;8.83;4.00;;;;;;;0.30;100.00;102850.44;5017070;28;20030;-87
2023/04/04 07:38:58;;;;;;;9.43;4.17;;;;;;;0.41;100.00;102866.13;5022388;28;20006;-88
2023/04/04 07:41:27;;;;;;;7.20;4.32;;;;;;;0.48;100.00;102860.28;5019706;28;20033;-87
2023/04/04 07:43:52;;;;;;;7.03;4.23;;;;;;;0.63;100.00;102871.25;5012966;28;20030;-88
2023/04/04 07:46:27;;;;;;;8.90;4.60;;;;;;;0.69;100.00;102868.03;5015908;28;20650;-86
2023/04/04 07:57:15;;;;;;;7.95;4.05;;;;;;;1.08;100.00;102867.13;4307071;26;20050;-88
2023/04/04 08:02:15;;;;;;;5.72;3.10;;;;;;;1.16;97.93;102835.53;5058525;22;20049;-88
2023/04/04 08:04:41;;;;;;;9.30;3.87;;;;;;;1.38;97.65;102860.72;5033721;28;20056;-87
2023/04/04 08:07:09;;;;;;;8.07;3.20;;;;;;;1.35;97.74;102845.19;5032496;28;20035;-87
2023/04/04 08:12:58;;;;;;;5.53;3.03;;;;;;;1.59;95.70;102879.00;4957117;28;20126;-86
2023/04/04 08:15:24;;;;;;;11.10;3.60;;;;;;;1.56;94.38;102866.09;5014578;28;20053;-86
2023/04/04 08:17:49;;;;;;;5.37;3.17;;;;;;;1.69;92.86;102854.31;5015276;28;20156;-88
2023/04/04 08:20:14;;;;;;;6.00;2.97;;;;;;;1.86;90.32;102866.72;5014370;28;20383;-88
2023/04/04 08:35:57;;;;;;;7.05;1.90;;;;;;;2.27;82.90;102848.59;5014373;28;20068;-88
2023/04/04 08:38:23;;;;;;;6.13;1.60;;;;;;;2.41;77.56;102851.69;5014366;28;20030;-88
2023/04/04 08:40:49;;;;;;;5.10;1.30;;;;;;;2.67;73.98;102869.44;5026276;28;20116;-88
2023/04/04 08:43:15;;;;;;;3.90;1.65;;;;;;;2.71;73.25;102858.38;5037283;28;20064;-88
2023/04/04 08:45:43;;;;;;;3.42;1.48;;;;;;;2.82;70.01;102861.75;5035754;28;20021;-88
2023/04/04 08:49:03;;;;;;;2.50;0.95;;;;;;;2.88;73.99;102851.38;5080515;22;20046;-89
2023/04/04 09:10:28;;;;;;;;;;;;;;;;;;;;;
2023/04/04 09:19:09;;;;;;;4.50;1.57;;;;;;;3.48;65.38;102809.88;5075501;22;20790;-87
2023/04/04 09:22:19;;;;;;;5.43;1.40;;;;;;;3.49;64.74;102802.78;5052145;28;20040;-87
2023/04/04 09:25:08;;;;;;;5.63;1.60;;;;;;;3.81;63.89;102850.75;5052986;28;20052;-87
2023/04/04 09:27:36;;;;;;;2.90;1.20;;;;;;;3.59;65.18;102803.44;5042402;28;20051;-87
2023/04/04 09:30:02;;;;;;;5.28;1.35;;;;;;;3.96;65.32;102854.41;5032319;28;20088;-87
2023/04/04 09:32:27;;;;;;;3.83;1.27;;;;;;;4.04;64.34;102835.03;5033352;28;20025;-88
2023/04/04 09:34:53;;;;;;;1.80;1.02;;;;;;;4.19;61.09;102853.78;5033578;28;20056;-86
2023/04/04 09:37:19;;;;;;;3.50;1.20;;;;;;;4.22;61.23;102842.81;5033967;28;20029;-86
2023/04/04 09:39:47;;;;;;;5.13;1.40;;;;;;;4.38;60.37;102842.00;5031562;28;20395;-87
2023/04/04 09:42:23;;;;;;;7.68;1.38;;;;;;;4.50;59.78;102851.28;5031993;28;20033;-87
2023/04/04 09:44:53;;;;;;;3.90;1.50;;;;;;;4.54;57.94;102843.81;5032294;28;20045;-87
2023/04/04 09:47:26;;;;;;;3.65;1.35;;;;;;;4.67;59.69;102852.09;5032519;28;20095;-86
2023/04/04 09:49:52;;;;;;;2.85;1.23;;;;;;;4.72;58.46;102850.78;5031509;28;20033;-87
2023/04/04 09:52:19;;;;;;;3.90;1.30;;;;;;;4.70;57.48;102835.84;5032315;28;20026;-87
2023/04/04 09:54:54;;;;;;;4.07;1.55;;;;;;;4.89;60.89;102844.44;5032468;28;20213;-87
2023/04/04 09:57:20;;;;;;;5.95;1.25;;;;;;;4.83;58.44;102829.16;5048637;22;20531;-87
2023/04/04 09:59:45;;;;;;;3.83;1.45;;;;;;;4.93;58.60;102839.59;5031055;28;20030;-87
2023/04/04 10:02:11;;;;;;;5.50;1.27;;;;;;;4.91;60.20;102834.47;5030797;28;20029;-87
2023/04/04 10:04:36;;;;;;;3.78;1.52;;;;;;;5.02;57.14;102827.13;5032518;28;20116;-86
2023/04/04 10:07:02;;;;;;;3.10;1.50;;;;;;;5.08;57.16;102829.91;5025139;28;20034;-86
2023/04/04 10:09:27;;;;;;;6.20;1.70;;;;;;;5.04;57.73;102814.50;5011628;28;20121;-86
2023/04/04 10:12:08;;;;;;;3.83;1.60;;;;;;;5.26;58.02;102828.84;5012172;28;20038;-86
2023/04/04 10:14:34;;;;;;;4.22;1.65;;;;;;;5.35;56.06;102821.66;5005988;28;20492;-87
2023/04/04 10:17:00;;;;;;;7.20;1.30;;;;;;;5.49;59.32;102828.09;5012150;28;20034;-85
2023/04/04 10:19:26;;;;;;;3.38;1.40;;;;;;;5.51;58.60;102826.06;5012422;28;20105;-86
2023/04/04 10:21:53;;;;;;;6.27;1.57;;;;;;;5.60;56.57;102822.34;5013439;28;20532;-86
2023/04/04 10:24:18;;;;;;;5.15;1.52;;;;;;;5.68;55.43;102819.66;5008374;28;20038;-86
2023/04/04 10:26:43;;;;;;;4.10;1.48;;;;;;;5.87;58.91;102821.03;4993226;28;20061;-87
2023/04/04 10:29:09;;;;;;;4.07;1.67;;;;;;;6.01;55.37;102826.63;5000398;28;20478;-86
2023/04/04 10:31:40;;;;;;;5.13;2.00;;;;;;;6.04;54.83;102827.09;5009710;28;20217;-85
2023/04/04 10:34:19;;;;;;;5.63;1.92;;;;;;;6.06;54.20;102827.75;4996822;28;20105;-86
2023/04/04 10:36:48;;;;;;;3.50;1.67;;;;;;;6.10;53.62;102819.41;5015906;28;20037;-86
2023/04/04 10:39:22;;;;;;;6.10;1.60;;;;;;;6.14;53.00;102821.53;5023227;28;20034;-86
2023/04/04 10:41:50;;;;;;;3.60;1.30;;;;;;;6.23;54.01;102822.28;5033204;28;20022;-86
2023/04/04 10:44:30;;;;;;;5.53;1.73;;;;;;;6.38;54.87;102818.81;5033951;28;20505;-86
2023/04/04 10:47:02;;;;;;;6.18;2.05;;;;;;;6.54;53.96;102810.69;5026220;28;20101;-86
2023/04/04 10:49:29;;;;;;;4.32;1.90;;;;;;;6.55;50.53;102790.22;5020405;28;20461;-86
2023/04/04 10:52:09;;;;;;;3.30;1.45;;;;;;;6.59;51.31;102791.47;5013800;28;20022;-86
2023/04/04 10:54:35;;;;;;;2.70;1.38;;;;;;;6.74;52.11;102796.81;5012221;28;20415;-86
2023/04/04 10:57:02;;;;;;;4.67;1.53;;;;;;;6.88;53.14;102796.00;5013928;28;20034;-86
2023/04/04 10:59:28;;;;;;;4.03;1.52;;;;;;;6.92;51.54;102794.63;5011651;28;20404;-86
2023/04/04 11:02:01;;;;;;;4.73;1.60;;;;;;;7.06;53.62;102802.78;5011343;28;20114;-86
2023/04/04 11:05:09;;;;;;;4.30;1.50;;;;;;;7.26;55.37;102795.03;5011380;28;20269;-86
2023/04/04 11:07:35;;;;;;;2.83;1.40;;;;;;;7.29;49.98;102784.00;4997229;28;20470;-86
2023/04/04 11:10:11;;;;;;;3.92;1.35;;;;;;;7.41;50.48;102789.66;5003467;28;20105;-86
2023/04/04 11:12:44;;;;;;;2.80;1.52;;;;;;;7.44;49.78;102794.63;4992169;28;20042;-86
2023/04/04 11:15:10;;;;;;;4.53;1.90;;;;;;;7.49;47.59;102791.38;4992150;28;20029;-86
2023/04/04 11:17:56;;;;;;;4.03;1.40;;;;;;;7.52;49.36;102775.00;4995955;28;20622;-86
2023/04/04 11:20:24;;;;;;;4.25;1.33;;;;;;;7.51;47.17;102779.53;5011107;28;20113;-86
2023/04/04 11:23:04;;;;;;;3.33;1.23;;;;;;;7.56;48.24;102781.63;5008133;28;20038;-86
2023/04/04 11:25:29;;;;;;;4.45;1.70;;;;;;;7.61;48.75;102762.38;5010503;28;20034;-86
2023/04/04 11:27:56;;;;;;;4.63;1.33;;;;;;;7.67;48.85;102765.09;5010382;28;20050;-86
2023/04/04 11:30:21;;;;;;;4.45;1.67;;;;;;;7.77;47.49;102762.09;5009024;28;20042;-85
2023/04/04 11:32:48;;;;;;;2.50;1.40;;;;;;;7.87;49.12;102757.28;5015087;28;20029;-86
2023/04/04 11:35:14;;;;;;;5.47;1.50;;;;;;;7.92;44.86;102764.72;5014880;28;20487;-86
2023/04/04 11:38:00;;;;;;;4.03;1.40;;;;;;;8.00;48.83;102769.09;5013398;28;20061;-85
2023/04/04 11:40:40;;;;;;;4.50;1.50;;;;;;;8.12;48.23;102769.38;5016956;28;20034;-85
2023/04/04 11:43:11;;;;;;;3.63;1.63;;;;;;;8.11;48.76;102760.56;5032086;28;20064;-85
2023/04/04 11:45:43;;;;;;;4.43;1.92;;;;;;;8.21;47.48;102765.56;5014673;28;20045;-86
2023/04/04 11:48:09;;;;;;;5.70;1.90;;;;;;;8.20;47.49;102766.59;5014511;28;20030;-85
2023/04/04 11:50:39;;;;;;;3.80;1.90;;;;;;;8.20;47.80;102755.91;5014035;28;20072;-86
2023/04/04 11:53:08;;;;;;;4.37;1.90;;;;;;;8.34;48.32;102746.13;5014579;28;20014;-86
2023/04/04 11:55:41;;;;;;;4.97;1.60;;;;;;;8.54;45.89;102758.81;5013804;28;20355;-85
2023/04/04 11:58:11;;;;;;;5.75;1.80;;;;;;;8.60;46.39;102753.50;5016744;28;20034;-85
2023/04/04 12:00:38;;;;;;;5.20;1.92;;;;;;;8.60;46.18;102744.69;5014435;28;20068;-86
2023/04/04 12:03:15;;;;;;;6.47;1.80;;;;;;;8.71;46.08;102743.28;5014668;28;20483;-87
2023/04/04 12:05:42;;;;;;;4.18;1.70;;;;;;;8.73;47.20;102744.72;5015654;28;20061;-86
2023/04/04 12:08:09;;;;;;;4.53;1.65;;;;;;;8.87;45.63;102740.28;5014952;28;20029;-86
2023/04/04 12:10:36;;;;;;;3.08;1.77;;;;;;;9.00;46.38;102738.69;5013823;28;20121;-86
2023/04/04 12:13:06;;;;;;;5.53;1.50;;;;;;;9.04;45.92;102738.06;5014515;28;20396;-86
2023/04/04 12:15:36;;;;;;;5.93;1.65;;;;;;;8.98;44.03;102722.00;5012574;28;20508;-85
2023/04/04 12:18:08;;;;;;;3.35;1.63;;;;;;;9.01;44.56;102734.97;5014300;28;20033;-85
2023/04/04 12:20:36;;;;;;;3.20;1.50;;;;;;;9.07;45.03;102723.50;5013598;28;20048;-86
2023/04/04 12:23:02;;;;;;;2.42;1.90;;;;;;;9.05;41.73;102717.50;5014920;28;20481;-86
2023/04/04 12:25:32;;;;;;;2.47;1.52;;;;;;;9.04;43.86;102710.50;5013029;28;20029;-86